• Join FlightAware (Why Join?)
  • Login
  • US Flag 
03:00PM EDT


 

Airport Tracker/Info


-or-


 

Live Flight TrackerFlight Track Log ✈ ASQ4976 ✈ 28-Apr-2013 ✈ KALB - KATL

Flight Track Log - Related Links

Times and Time Zones

All times are in EDT time to prevent confusion due to time zone crossing. See the ASQ4976 flight status page for this flight to view local times or setup timezone preferences in your user account.

Time Position Orientation Groundspeed Altitude Reporting Facility
EDT Latitude Longitude Course Direction KTS MPH feet Rate Location/Type
01:09PM 42.7089 -73.8075 179° South 157 181 1,700  Level Boston Center
01:10PM 42.6708 -73.8547 222° Southwest 227 261 3,600 2,040 Climbing Boston Center
01:11PM 42.6489 -73.9419 251° West 271 312 5,700 2,400 Climbing Boston Center
01:12PM 42.6433 -74.0433 266° West 261 300 8,200 2,280 Climbing Boston Center
01:13PM 42.6378 -74.1364 265° West 271 312 10,300 1,740 Climbing Boston Center
01:14PM 42.5758 -74.2389 231° Southwest 287 330 11,700 1,500 Climbing Boston Center
01:15PM 42.5042 -74.2903 208° Southwest 330 380 13,400 1,800 Climbing Boston Center
01:16PM 42.4117 -74.2144 149° Southeast 312 359 15,400 1,740 Climbing Boston Center
01:17PM 42.3356 -74.1364 143° Southeast 360 414 16,900 1,380 Climbing Boston Center
01:18PM 42.2347 -74.0525 148° Southeast 384 442 18,200 1,260 Climbing Boston Center
01:19PM 42.1258 -74.0806 191° South 364 419 19,500 1,260 Climbing Boston Center
01:20PM 42.0169 -74.1308 199° South 380 437 20,800 1,260 Climbing Boston Center
01:21PM 41.9042 -74.1306 180° South 398 458 22,100 1,260 Climbing Boston Center
01:22PM 41.7994 -74.0358 146° Southeast 406 467 23,400 660 Climbing Boston Center
01:24PM 41.6081 -74.0283 178° South 424 488 24,000 180 Climbing New York Center
01:25PM 41.5031 -74.1339 217° Southwest 405 466 24,000  Level New York Center
01:26PM 41.4042 -74.2422 219° Southwest 427 491 24,000  Level New York Center
01:27PM 41.3094 -74.3506 221° Southwest 448 516 24,000  Level New York Center
01:28PM 41.2125 -74.4531 219° Southwest 454 522 24,000  Level New York Center
01:29PM 41.1194 -74.5636 222° Southwest 454 522 24,000  Level New York Center
01:30PM 41.0264 -74.6711 221° Southwest 454 522 24,000  Level New York Center
01:31PM 40.9333 -74.7756 220° Southwest 448 516 24,000  Level New York Center
01:32PM 40.8361 -74.8769 218° Southwest 448 516 24,000  Level New York Center
01:33PM 40.7231 -74.9467 205° Southwest 448 516 24,000  Level New York Center
01:34PM 40.6103 -75.0192 206° Southwest 448 516 24,000  Level New York Center
01:35PM 40.5169 -75.1172 219° Southwest 448 516 24,000  Level New York Center
01:36PM 40.4397 -75.2350 229° Southwest 434 499 24,000 -60 Level New York Center
01:37PM 40.3689 -75.3419 229° Southwest 421 484 23,900  Descending New York Center
01:38PM 40.3133 -75.4311 231° Southwest 385 443 24,000  Climbing New York Center
01:39PM 40.2489 -75.5272 229° Southwest 363 418 24,000  Level New York Center
01:40PM 40.1883 -75.6319 233° Southwest 363 418 24,000  Level New York Center
01:41PM 40.1292 -75.7553 238° Southwest 382 440 24,000  Level New York Center
01:42PM 40.0656 -75.8783 236° Southwest 404 465 24,000  Level New York Center
01:43PM 39.9972 -76.0089 236° Southwest 418 481 24,000  Level New York Center
01:44PM 39.9353 -76.1367 238° Southwest 430 495 24,000  Level New York Center
01:45PM 39.8647 -76.2639 234° Southwest 430 495 24,000  Level New York Center
01:46PM 39.8050 -76.3808 236° Southwest 420 483 24,000  Level New York Center
01:46PM 39.7731 -76.4528 240° Southwest 394 453 24,000  Level Washington Center
01:47PM 39.7203 -76.5411 232° Southwest 321 369 24,000  Level Washington Center
01:48PM 39.6694 -76.6375 236° Southwest 326 375 24,000  Level Washington Center
01:49PM 39.6186 -76.7364 236° Southwest 326 375 24,000  Level Washington Center
01:50PM 39.5675 -76.8353 236° Southwest 326 375 24,000  Level Washington Center
01:51PM 39.5167 -76.9339 236° Southwest 331 381 24,000  Level Washington Center
01:52PM 39.4531 -77.0242 228° Southwest 331 381 24,000  Level Washington Center
01:53PM 39.3833 -77.0953 218° Southwest 331 381 24,000  Level Washington Center
01:54PM 39.3136 -77.1689 219° Southwest 331 381 24,000  Level Washington Center
01:55PM 39.2439 -77.2425 219° Southwest 331 381 24,000  Level Washington Center
01:56PM 39.1719 -77.3158 218° Southwest 331 381 24,000  Level Washington Center
01:57PM 39.1022 -77.3917 220° Southwest 331 381 24,000  Level Washington Center
01:58PM 39.0239 -77.4725 219° Southwest 336 387 24,000  Level Washington Center
01:59PM 38.9453 -77.5533 219° Southwest 355 409 24,000  Level Washington Center
02:00PM 38.8669 -77.6311 218° Southwest 366 421 24,000  Level Washington Center
02:01PM 38.7925 -77.7117 220° Southwest 357 411 24,000  Level Washington Center
02:02PM 38.7161 -77.7867 217° Southwest 371 427 24,000  Level Washington Center
02:03PM 38.6375 -77.8719 220° Southwest 371 427 24,000  Level Washington Center
02:04PM 38.5769 -77.9764 233° Southwest 371 427 24,000  Level Washington Center
02:05PM 38.5167 -78.0806 234° Southwest 371 427 24,000  Level Washington Center
02:06PM 38.4539 -78.1872 233° Southwest 371 427 24,000  Level Washington Center
02:07PM 38.3931 -78.2911 233° Southwest 377 434 24,000  Level Washington Center
02:08PM 38.3303 -78.3972 233° Southwest 377 434 24,000  Level Washington Center
02:09PM 38.2608 -78.5136 233° Southwest 388 447 24,000  Level Washington Center
02:10PM 38.1867 -78.6403 233° Southwest 405 466 24,000  Level Washington Center
02:11PM 38.1147 -78.7589 232° Southwest 419 482 24,000  Level Washington Center
02:12PM 38.0428 -78.8797 233° Southwest 426 490 24,000  Level Washington Center
02:13PM 37.9794 -78.9850 233° Southwest 431 496 24,000  Level Washington Center
02:14PM 37.9092 -79.1003 232° Southwest 431 496 24,000  Level Washington Center
02:15PM 37.8331 -79.2072 228° Southwest 431 496 24,000  Level Washington Center
02:16PM 37.7547 -79.3164 228° Southwest 426 490 24,000  Level Washington Center
02:17PM 37.6675 -79.4328 227° Southwest 415 478 24,000  Level Washington Center
02:18PM 37.5931 -79.5392 229° Southwest 415 478 24,000  Level Washington Center
02:19PM 37.5147 -79.6422 226° Southwest 410 472 24,000  Level Washington Center
02:20PM 37.4444 -79.7381 227° Southwest 410 472 24,000  Level Washington Center
02:21PM 37.3569 -79.8586 228° Southwest 422 486 24,000  Level Washington Center
02:22PM 37.2822 -79.9589 227° Southwest 417 480 24,000  Level Washington Center
02:23PM 37.2053 -80.0667 228° Southwest 417 480 24,000  Level Washington Center
02:26PM 37.0092 -80.3244 226° Southwest 404 465 24,100  Climbing Atlanta Center
02:27PM 36.9331 -80.4267 227° Southwest 409 471 24,000 -60 Descending Atlanta Center
02:28PM 36.8528 -80.5342 227° Southwest 409 471 24,000  Level Atlanta Center
02:29PM 36.7825 -80.6281 227° Southwest 409 471 24,000  Level Atlanta Center
02:30PM 36.6958 -80.7403 226° Southwest 402 463 24,000  Level Atlanta Center
02:31PM 36.6172 -80.8444 227° Southwest 407 468 24,000  Level Atlanta Center
02:32PM 36.5408 -80.9483 228° Southwest 412 474 24,000  Level Atlanta Center
02:33PM 36.4578 -81.0547 226° Southwest 412 474 24,000  Level Atlanta Center
02:34PM 36.3792 -81.1633 228° Southwest 417 480 24,000  Level Atlanta Center
02:35PM 36.3003 -81.2694 227° Southwest 417 480 24,000  Level Atlanta Center
02:36PM 36.2272 -81.3644 226° Southwest 417 480 24,000  Level Atlanta Center
02:37PM 36.1481 -81.4675 226° Southwest 417 480 24,000  Level Atlanta Center
02:38PM 36.0669 -81.5728 226° Southwest 422 486 24,000  Level Atlanta Center
02:39PM 35.9875 -81.6753 226° Southwest 412 474 24,000  Level Atlanta Center
02:40PM 35.9081 -81.7800 227° Southwest 412 474 24,000  Level Atlanta Center
02:41PM 35.8286 -81.8822 226° Southwest 412 474 24,000  Level Atlanta Center
02:42PM 35.7469 -81.9842 225° Southwest 412 474 24,000  Level Atlanta Center
02:43PM 35.6650 -82.0808 224° Southwest 407 468 24,000  Level Atlanta Center
02:44PM 35.5811 -82.1747 222° Southwest 413 475 24,000  Level Atlanta Center
02:45PM 35.5031 -82.2658 224° Southwest 403 464 24,000  Level Atlanta Center
02:46PM 35.4269 -82.3489 222° Southwest 372 428 24,000  Level Atlanta Center
02:47PM 35.3469 -82.4422 224° Southwest 360 414 24,000  Level Atlanta Center
02:48PM 35.2708 -82.5278 223° Southwest 372 428 24,000  Level Atlanta Center
02:49PM 35.1989 -82.6103 223° Southwest 367 422 24,000  Level Atlanta Center
02:50PM 35.1247 -82.6953 223° Southwest 367 422 24,000  Level Atlanta Center
02:51PM 35.0503 -82.7778 222° Southwest 367 422 24,000  Level Atlanta Center
02:52PM 34.9761 -82.8575 221° Southwest 367 422 24,000  Level Atlanta Center
02:53PM 34.9036 -82.9344 221° Southwest 378 435 24,000  Level Atlanta Center
02:54PM 34.8272 -83.0217 223° Southwest 383 441 24,000  Level Atlanta Center
02:55PM 34.7508 -83.1136 225° Southwest 384 442 24,000  Level Atlanta Center
02:56PM 34.6681 -83.2053 222° Southwest 389 448 24,000  Level Atlanta Center
02:57PM 34.5872 -83.2944 222° Southwest 394 453 24,000 -840 Level Atlanta Center
02:58PM 34.5000 -83.3911 222° Southwest 394 453 22,400 -1,740 Descending Atlanta Center
02:59PM 34.4275 -83.4697 222° Southwest 377 434 20,600 -1,920 Descending Atlanta Center
03:00PM 34.3608 -83.5431 222° Southwest 346 398 18,600 -1,980 Descending Atlanta Center
03:01PM 34.2964 -83.6139 222° Southwest 326 375 16,700 -1,800 Descending Atlanta Center
03:02PM 34.2319 -83.6844 222° Southwest 311 358 15,000 -1,680 Descending Atlanta Center
03:03PM 34.1717 -83.7525 223° Southwest 306 352 13,400 -1,500 Descending Atlanta Center
03:04PM 34.1114 -83.8181 222° Southwest 301 346 12,000 -900 Descending Atlanta Center
03:05PM 34.0592 -83.8808 225° Southwest 279 321 11,600 -1,020 Descending Atlanta Center
03:06PM 34.0167 -83.9333 226° Southwest 258 297 10,100 -1,380 Descending Atlanta TRACON
03:07PM 33.9500 -83.9667 203° Southwest 258 297 9,000 -600 Descending Atlanta TRACON
03:08PM 33.8833 -83.9667 180° South 275 316 9,000 -300 Level Atlanta TRACON
03:09PM 33.8000 -83.9500 171° South 277 319 8,500 -660 Descending Atlanta TRACON
03:10PM 33.7333 -83.9500 180° South 259 298 7,800 -780 Descending Atlanta TRACON
03:11PM 33.6564 -83.9564 184° South 265 305 7,000 -540 Descending Atlanta Center
03:13PM 33.6333 -84.1000 259° West 200 230 6,200 -720 Descending Atlanta TRACON
03:14PM 33.6333 -84.1667 270° West 198 228 4,900 -1,140 Descending Atlanta TRACON
03:15PM 33.6333 -84.2333 270° West 178 205 4,000 -960 Descending Atlanta TRACON
03:16PM 33.6333 -84.2833 270° West 182 209 3,000 -900 Descending Atlanta TRACON
03:17PM 33.6333 -84.3500 270° West 167 192 2,200 -900 Descending Atlanta TRACON
03:18PM 33.6333 -84.4000 270° West 152 175 1,300 -900 Descending Atlanta TRACON
03:20PM 33.6333 -84.4167 220° Southwest  Level FlightAware Approximate
03:27PM 33.6367 -84.4279 220° Southwest  Level Estimated